createdAt,value
2019-05-02T00:04:11.923Z,24.4
2019-05-02T00:14:07.959Z,24.4
2019-05-02T00:24:07.171Z,24.4
2019-05-02T00:34:06.387Z,24.4
2019-05-02T00:44:05.969Z,24.5
2019-05-02T00:54:04.819Z,24.4
2019-05-02T01:04:04.043Z,24.5
2019-05-02T01:14:03.255Z,24.4
2019-05-02T01:24:02.916Z,24.4
2019-05-02T01:34:01.688Z,24.4
2019-05-02T01:44:01.619Z,24.4
2019-05-02T01:54:00.117Z,24.4
2019-05-02T02:03:59.329Z,24.3
2019-05-02T02:13:58.544Z,24.3
2019-05-02T02:23:57.758Z,24.3
2019-05-02T02:33:56.977Z,24.3
2019-05-02T02:44:00.464Z,24.3
2019-05-02T02:54:02.611Z,24.3
2019-05-02T03:03:54.619Z,24.2
2019-05-02T03:14:00.057Z,24.3
2019-05-02T03:24:01.180Z,24.3
2019-05-02T03:33:55.371Z,24.3
2019-05-02T03:44:09.035Z,24.3
2019-05-02T03:53:50.712Z,24.3
2019-05-02T04:03:49.910Z,24.3
2019-05-02T04:13:49.124Z,24.3
2019-05-02T04:23:48.349Z,24.3
2019-05-02T04:33:47.567Z,24.4
2019-05-02T04:43:51.269Z,24.3
2019-05-02T04:53:49.368Z,24.2
2019-05-02T05:03:49.014Z,24.4
2019-05-02T05:13:44.420Z,24.7
2019-05-02T05:23:43.639Z,24.1
2019-05-02T05:33:42.847Z,24.4
2019-05-02T05:43:44.745Z,24.3
2019-05-02T05:53:41.275Z,24.3
2019-05-02T06:03:44.520Z,24.4
2019-05-02T06:13:42.847Z,24.3
2019-05-02T06:23:41.231Z,24.3
2019-05-02T06:33:38.134Z,24.3
2019-05-02T06:43:41.057Z,24.1
2019-05-02T06:53:36.565Z,24.2
2019-05-02T07:03:35.774Z,24.3
2019-05-02T07:13:36.104Z,24.3
2019-05-02T07:23:34.197Z,24.1
2019-05-02T07:33:37.401Z,24.3
2019-05-02T07:43:32.675Z,24.3
2019-05-02T07:53:31.850Z,24.3
2019-05-02T08:03:33.475Z,24.3
2019-05-02T08:13:31.471Z,24.2
2019-05-02T08:23:29.488Z,24.2
2019-05-02T08:33:29.070Z,24.3
2019-05-02T08:43:27.907Z,24.2
2019-05-02T08:53:27.119Z,24.2
2019-05-02T09:03:26.339Z,24.2
2019-05-02T09:13:29.062Z,24.2
2019-05-02T09:23:27.413Z,24.1
2019-05-02T09:33:23.970Z,24.2
2019-05-02T09:43:23.188Z,24.2
2019-05-02T09:53:25.417Z,24.2
2019-05-02T10:03:22.569Z,24.1
2019-05-02T10:13:22.614Z,24
2019-05-02T10:23:21.338Z,24.1
2019-05-02T10:33:19.262Z,23.9
2019-05-02T10:43:18.479Z,24.3
2019-05-02T10:53:17.692Z,24.1
2019-05-02T11:03:16.907Z,24.3
2019-05-02T11:13:16.119Z,24.3
2019-05-02T11:23:15.370Z,24.2
2019-05-02T11:33:14.541Z,24.1
2019-05-02T11:43:13.754Z,24.1
2019-05-02T11:53:23.119Z,24.1
2019-05-02T12:03:12.701Z,24.1
2019-05-02T12:13:15.728Z,24.1
2019-05-02T12:23:12.774Z,24.1
2019-05-02T12:33:10.315Z,24
2019-05-02T12:43:09.041Z,24.1
2019-05-02T12:53:08.247Z,24.1
2019-05-02T13:03:07.460Z,24
2019-05-02T13:13:06.681Z,24.1
2019-05-02T13:23:05.894Z,24.1
2019-05-02T13:33:05.098Z,24.1
2019-05-02T13:43:04.318Z,24.1
2019-05-02T13:53:03.536Z,24.1
2019-05-02T14:03:02.941Z,24.1
2019-05-02T14:13:03.175Z,24.1
2019-05-02T14:23:02.112Z,24.1
2019-05-02T14:33:02.143Z,24.1
2019-05-02T14:43:03.270Z,24.1
2019-05-02T14:52:58.853Z,24.1
2019-05-02T15:02:58.010Z,24.1
2019-05-02T15:12:59.405Z,24.1
2019-05-02T15:22:56.440Z,24.1
2019-05-02T15:32:55.646Z,24.1
2019-05-02T15:42:56.609Z,24.1
2019-05-02T15:52:57.147Z,24.2
2019-05-02T16:02:56.199Z,24.2
2019-05-02T16:12:52.747Z,24.3
2019-05-02T16:22:52.375Z,24.3
2019-05-02T16:32:52.189Z,24.4
2019-05-02T16:42:51.801Z,24.3
2019-05-02T16:52:49.364Z,24.4
2019-05-02T17:02:48.583Z,24.3
2019-05-02T17:12:52.775Z,24.4
2019-05-02T17:22:50.132Z,24.4
2019-05-02T17:32:46.221Z,24.4
2019-05-02T17:42:45.430Z,24.4
2019-05-02T17:52:44.654Z,24.4
2019-05-02T18:02:46.834Z,24.4
2019-05-02T18:12:47.199Z,24.4
2019-05-02T18:22:45.249Z,24.4
2019-05-02T18:32:41.992Z,24.4
2019-05-02T18:42:42.379Z,24.4
2019-05-02T18:52:43.129Z,24.4
2019-05-02T19:02:39.152Z,24.4
2019-05-02T19:12:38.360Z,24.4
2019-05-02T19:22:48.040Z,24.4
2019-05-02T19:32:36.800Z,24.4
2019-05-02T19:42:36.010Z,24.4
2019-05-02T19:52:39.257Z,24.4
2019-05-02T20:02:37.364Z,24.4
2019-05-02T20:12:33.652Z,24.4
2019-05-02T20:22:36.201Z,24.4
2019-05-02T20:32:32.270Z,24.4
2019-05-02T20:42:32.143Z,24.4
2019-05-02T20:52:32.263Z,24.4
2019-05-02T21:02:31.770Z,24.4
2019-05-02T21:12:28.932Z,24.4
2019-05-02T21:22:28.140Z,24.4
2019-05-02T21:32:27.362Z,24.4
2019-05-02T21:42:26.618Z,24.4
2019-05-02T21:52:25.779Z,24.4
2019-05-02T22:02:24.999Z,24.4
2019-05-02T22:12:24.212Z,24.4
2019-05-02T22:22:23.418Z,24.4
2019-05-02T22:32:22.677Z,24.4
2019-05-02T22:42:21.988Z,24.4
2019-05-02T22:52:21.759Z,24.4
2019-05-02T23:02:21.925Z,24.4
2019-05-02T23:12:19.484Z,24.4
2019-05-02T23:22:18.703Z,24.4
2019-05-02T23:32:17.914Z,24.4
2019-05-02T23:42:17.129Z,24.4
2019-05-02T23:52:16.331Z,24.4
